Time;durP1;ratioP1;P1;durP2;ratioP2;P2;SDS_P1;SDS_P2;PMS_P1;PMS_P2;Temp;Humidity;BMP_temperature;BMP_pressure;BME280_temperature;BME280_humidity;BME280_pressure;Samples;Min_cycle;Max_cycle;Signal;HPM_P1;HPM_P2
2022/05/07 00:01:11;;;;;;;6.77;6.17;;;15.70;99.90;;;;;;5014125;28;20200;-52
2022/05/07 00:03:36;;;;;;;8.60;7.10;;;15.70;99.90;;;;;;5013375;28;20234;-52
2022/05/07 00:06:02;;;;;;;8.60;7.80;;;15.70;99.90;;;;;;5013852;28;20200;-55
2022/05/07 00:08:27;;;;;;;7.73;7.10;;;15.70;99.90;;;;;;5013988;28;20181;-54
2022/05/07 00:10:53;;;;;;;7.20;6.50;;;15.70;99.90;;;;;;5013726;28;20180;-54
2022/05/07 00:13:18;;;;;;;7.93;6.70;;;15.70;99.90;;;;;;5013160;28;20185;-53
2022/05/07 00:18:01;;;;;;;9.27;8.37;;;15.60;99.90;;;;;;5013526;28;20301;-56
2022/05/07 00:18:30;;;;;;;8.13;7.33;;;15.60;99.90;;;;;;5013776;28;20275;-57
2022/05/07 00:20:55;;;;;;;7.83;6.97;;;15.70;99.90;;;;;;5013851;28;20791;-55
2022/05/07 00:23:21;;;;;;;7.83;7.10;;;15.70;99.90;;;;;;5013609;28;20227;-55
2022/05/07 00:25:46;;;;;;;9.23;8.43;;;15.60;99.90;;;;;;5013376;28;20208;-56
2022/05/07 00:28:12;;;;;;;8.20;7.43;;;15.60;99.90;;;;;;5013589;28;20184;-52
2022/05/07 00:30:37;;;;;;;7.83;7.13;;;15.60;99.90;;;;;;5013590;28;20188;-56
2022/05/07 00:33:03;;;;;;;8.10;7.40;;;15.60;99.90;;;;;;5013511;28;20195;-55
2022/05/07 00:35:28;;;;;;;11.67;10.57;;;15.60;99.90;;;;;;5013133;28;20239;-57
2022/05/07 00:37:54;;;;;;;8.63;7.83;;;15.60;99.90;;;;;;4995940;28;20219;-57
2022/05/07 00:40:19;;;;;;;7.10;6.50;;;15.60;99.90;;;;;;5013307;28;20235;-55
2022/05/07 00:42:45;;;;;;;8.53;7.63;;;15.60;99.90;;;;;;5013373;28;20654;-57
2022/05/07 00:45:11;;;;;;;7.90;7.20;;;15.60;99.90;;;;;;5012869;28;20204;-53
2022/05/07 00:47:38;;;;;;;7.63;6.73;;;15.60;99.90;;;;;;5013237;28;20189;-55
2022/05/07 00:52:51;;;;;;;7.10;6.50;;;15.60;99.90;;;;;;5013200;28;20234;-58
2022/05/07 00:55:16;;;;;;;7.77;7.07;;;15.50;99.90;;;;;;5012862;28;20235;-54
2022/05/07 00:57:42;;;;;;;7.30;6.70;;;16.10;99.90;;;;;;4995285;28;20200;-57
2022/05/07 01:00:09;;;;;;;8.10;7.40;;;15.60;99.90;;;;;;5013088;28;20258;-52
2022/05/07 01:02:36;;;;;;;7.80;7.10;;;15.60;99.90;;;;;;5013306;28;20259;-53
2022/05/07 01:05:02;;;;;;;10.83;9.83;;;15.60;99.90;;;;;;5012618;28;20184;-50
2022/05/07 01:07:28;;;;;;;9.33;8.53;;;15.50;99.90;;;;;;5013001;28;20633;-51
2022/05/07 01:09:54;;;;;;;8.37;7.57;;;15.50;99.90;;;;;;5012793;28;20173;-52
2022/05/07 01:12:20;;;;;;;7.17;6.50;;;15.50;99.90;;;;;;5012527;28;20198;-53
2022/05/07 01:14:46;;;;;;;7.20;6.50;;;15.50;99.90;;;;;;5012518;28;20192;-51
2022/05/07 01:17:11;;;;;;;7.63;7.00;;;15.50;99.90;;;;;;5012835;28;20241;-53
2022/05/07 01:19:37;;;;;;;7.70;7.00;;;15.50;99.90;;;;;;5012619;28;20296;-51
2022/05/07 01:22:03;;;;;;;7.37;6.67;;;15.50;99.90;;;;;;5012788;28;20187;-54
2022/05/07 01:24:29;;;;;;;7.00;6.37;;;15.50;99.90;;;;;;5011889;28;20176;-54
2022/05/07 01:26:54;;;;;;;7.57;6.63;;;15.50;99.90;;;;;;5012428;28;20525;-51
2022/05/07 01:29:20;;;;;;;7.73;7.03;;;15.50;99.90;;;;;;5012582;28;20577;-58
2022/05/07 01:31:46;;;;;;;7.50;6.80;;;15.50;99.90;;;;;;5011953;28;20646;-62
2022/05/07 01:34:12;;;;;;;7.40;6.70;;;15.60;99.90;;;;;;5011934;28;20189;-52
2022/05/07 01:36:38;;;;;;;6.77;6.17;;;15.50;99.90;;;;;;5012392;28;20207;-51
2022/05/07 01:39:04;;;;;;;9.10;7.20;;;15.50;99.90;;;;;;5012512;28;20172;-52
2022/05/07 01:41:29;;;;;;;7.30;6.60;;;15.50;99.90;;;;;;5012139;28;20686;-54
2022/05/07 01:43:55;;;;;;;8.23;7.47;;;15.50;99.90;;;;;;5012152;28;20187;-51
2022/05/07 01:49:05;;;;;;;6.80;6.20;;;15.40;99.90;;;;;;5012669;28;20186;-50
2022/05/07 01:51:30;;;;;;;7.00;6.40;;;15.40;99.90;;;;;;5012321;28;20262;-52
2022/05/07 01:53:56;;;;;;;7.73;7.00;;;16.30;99.90;;;;;;5012006;28;20230;-57
2022/05/07 01:56:22;;;;;;;6.93;6.33;;;15.30;99.90;;;;;;5011949;28;20257;-53
2022/05/07 01:58:48;;;;;;;6.80;6.20;;;15.40;99.90;;;;;;5012269;28;20175;-51
2022/05/07 02:01:14;;;;;;;7.27;6.63;;;14.30;99.90;;;;;;5012143;28;20208;-52
2022/05/07 02:03:39;;;;;;;7.27;6.67;;;15.40;99.90;;;;;;5011857;28;20580;-51
2022/05/07 02:06:05;;;;;;;7.47;6.77;;;15.40;99.90;;;;;;5011995;28;20287;-51
2022/05/07 02:08:31;;;;;;;7.10;6.40;;;15.40;99.90;;;;;;5012074;28;20183;-58
2022/05/07 02:10:59;;;;;;;7.07;6.47;;;15.40;99.90;;;;;;5011883;28;20278;-51
2022/05/07 02:13:25;;;;;;;7.00;6.40;;;15.40;99.90;;;;;;5011747;28;20188;-53
2022/05/07 02:15:50;;;;;;;7.33;6.73;;;15.40;99.90;;;;;;5011788;28;20350;-54
2022/05/07 02:18:16;;;;;;;6.90;6.30;;;15.50;99.90;;;;;;5011931;28;20260;-52
2022/05/07 02:20:41;;;;;;;7.13;6.50;;;15.40;99.90;;;;;;5011814;28;20206;-57
2022/05/07 02:23:07;;;;;;;7.10;6.50;;;15.40;99.90;;;;;;5011889;28;20171;-55
2022/05/07 02:25:32;;;;;;;6.97;6.37;;;15.50;99.90;;;;;;5011417;28;20212;-53
2022/05/07 02:27:58;;;;;;;8.13;6.33;;;15.50;99.90;;;;;;5011737;28;20180;-57
2022/05/07 02:30:24;;;;;;;7.00;6.40;;;15.50;99.90;;;;;;5012035;28;20175;-51
2022/05/07 02:32:49;;;;;;;7.17;6.47;;;15.40;99.90;;;;;;5011903;28;20181;-53
2022/05/07 02:35:15;;;;;;;7.50;6.60;;;15.40;99.90;;;;;;5012727;28;20191;-54
2022/05/07 02:37:41;;;;;;;7.60;6.80;;;15.40;99.90;;;;;;5015567;28;20184;-56
2022/05/07 02:40:07;;;;;;;7.27;6.57;;;15.40;99.90;;;;;;5015649;28;20215;-50
2022/05/07 02:42:42;;;;;;;6.47;5.90;;;15.40;99.90;;;;;;5015672;28;20864;-51
2022/05/07 02:45:09;;;;;;;7.50;6.80;;;15.40;99.90;;;;;;5015224;28;20269;-56
2022/05/07 02:47:36;;;;;;;6.87;6.27;;;15.40;99.90;;;;;;5015533;28;20172;-55
2022/05/07 02:50:06;;;;;;;6.40;5.90;;;15.40;99.90;;;;;;5016912;28;20179;-55
2022/05/07 02:52:33;;;;;;;7.60;6.33;;;15.30;99.90;;;;;;5015268;28;20291;-53
2022/05/07 02:55:02;;;;;;;6.40;5.90;;;15.40;99.90;;;;;;5014790;28;20200;-55
2022/05/07 02:57:28;;;;;;;6.70;6.10;;;15.30;99.90;;;;;;5015427;28;20173;-55
2022/05/07 02:59:54;;;;;;;6.87;6.27;;;15.30;99.90;;;;;;5015365;28;20548;-51
2022/05/07 03:02:19;;;;;;;6.20;5.70;;;15.30;99.90;;;;;;5015283;28;20179;-53
2022/05/07 03:04:47;;;;;;;6.37;5.77;;;15.30;99.90;;;;;;5014767;28;20661;-55
2022/05/07 03:07:13;;;;;;;6.60;6.07;;;15.30;99.90;;;;;;5015154;28;20234;-53
2022/05/07 03:09:38;;;;;;;5.83;5.30;;;15.30;99.90;;;;;;5015191;28;20171;-54
2022/05/07 03:12:04;;;;;;;6.37;5.87;;;15.30;99.90;;;;;;5015100;28;20179;-53
2022/05/07 03:14:31;;;;;;;6.83;6.23;;;15.30;99.90;;;;;;5014796;28;20650;-53
2022/05/07 03:16:56;;;;;;;7.70;7.00;;;15.30;99.90;;;;;;5015072;28;20161;-53
2022/05/07 03:19:22;;;;;;;6.90;6.20;;;15.30;99.90;;;;;;5014981;28;20218;-55
2022/05/07 03:21:47;;;;;;;6.90;6.30;;;15.30;99.90;;;;;;5014855;28;20227;-54
2022/05/07 03:24:13;;;;;;;6.90;6.30;;;15.30;99.90;;;;;;5014641;28;20236;-54
2022/05/07 03:26:39;;;;;;;8.20;7.40;;;15.30;99.90;;;;;;5014584;28;20324;-54
2022/05/07 03:29:04;;;;;;;6.27;5.67;;;15.30;99.90;;;;;;5014685;28;20184;-55
2022/05/07 03:31:30;;;;;;;5.87;5.37;;;15.30;99.90;;;;;;5014689;28;20175;-55
2022/05/07 03:33:56;;;;;;;6.70;5.97;;;15.30;99.90;;;;;;5014409;28;20538;-51
2022/05/07 03:36:21;;;;;;;6.27;5.77;;;15.30;99.90;;;;;;5014846;28;20211;-56
2022/05/07 03:38:47;;;;;;;6.60;6.00;;;15.20;99.90;;;;;;5014635;28;20549;-55
2022/05/07 03:41:14;;;;;;;6.40;5.80;;;15.20;99.90;;;;;;5014489;28;20205;-56
2022/05/07 03:43:40;;;;;;;6.57;5.97;;;15.20;99.90;;;;;;5014312;28;20171;-55
2022/05/07 03:46:07;;;;;;;6.70;6.10;;;15.20;99.90;;;;;;5014133;28;20259;-56
2022/05/07 03:48:32;;;;;;;6.07;5.53;;;15.10;99.90;;;;;;5014566;28;20176;-53
2022/05/07 03:50:59;;;;;;;6.30;5.70;;;15.10;99.90;;;;;;5014422;28;20180;-51
2022/05/07 03:53:31;;;;;;;6.20;5.60;;;15.20;99.90;;;;;;5014386;28;20179;-52
2022/05/07 03:56:00;;;;;;;6.70;6.10;;;15.20;99.90;;;;;;5014330;28;20239;-52
2022/05/07 03:58:26;;;;;;;6.07;5.03;;;15.20;99.90;;;;;;5014393;28;20199;-57
2022/05/07 04:00:53;;;;;;;6.40;5.80;;;15.10;99.90;;;;;;5014721;28;20238;-52
2022/05/07 04:03:20;;;;;;;6.33;5.77;;;15.10;99.90;;;;;;5014225;28;20256;-53
2022/05/07 04:05:46;;;;;;;6.83;6.23;;;15.20;99.90;;;;;;5013942;28;20235;-52
2022/05/07 04:08:12;;;;;;;6.50;6.00;;;15.20;99.90;;;;;;5014110;28;20175;-54
2022/05/07 04:10:38;;;;;;;5.90;5.40;;;15.20;99.90;;;;;;5013963;28;20250;-53
2022/05/07 04:13:03;;;;;;;6.27;5.67;;;15.20;99.90;;;;;;5013991;28;20180;-54
2022/05/07 04:15:29;;;;;;;6.43;5.83;;;15.20;99.90;;;;;;5013598;28;20223;-56
2022/05/07 04:17:54;;;;;;;7.50;6.80;;;15.20;99.90;;;;;;5013855;28;20287;-53
2022/05/07 04:20:20;;;;;;;6.20;5.70;;;15.20;99.90;;;;;;5013675;28;20215;-52
2022/05/07 04:22:46;;;;;;;6.50;5.90;;;15.30;99.90;;;;;;5013756;28;20174;-54
2022/05/07 04:25:13;;;;;;;6.93;5.93;;;15.20;99.90;;;;;;5013365;28;20215;-56
2022/05/07 04:27:39;;;;;;;6.03;5.53;;;15.30;99.90;;;;;;5013692;28;20179;-53
2022/05/07 04:30:05;;;;;;;6.07;5.57;;;15.30;99.90;;;;;;5013551;28;20183;-55
2022/05/07 04:32:31;;;;;;;6.27;5.67;;;15.30;99.90;;;;;;5013404;28;20183;-51
2022/05/07 04:34:57;;;;;;;6.20;5.70;;;15.30;99.90;;;;;;5013138;28;20193;-55
2022/05/07 04:37:23;;;;;;;6.20;5.70;;;15.30;99.90;;;;;;5013426;28;20167;-54
2022/05/07 04:39:48;;;;;;;6.20;5.70;;;15.30;99.90;;;;;;5013625;28;20435;-54
2022/05/07 04:42:14;;;;;;;6.07;5.40;;;15.30;99.90;;;;;;5013463;28;20240;-53
2022/05/07 04:44:40;;;;;;;6.00;5.50;;;15.30;99.90;;;;;;5013092;28;20561;-52
2022/05/07 04:47:05;;;;;;;6.90;6.30;;;15.30;99.90;;;;;;5013391;28;20171;-54
2022/05/07 04:49:32;;;;;;;6.27;5.67;;;15.30;99.90;;;;;;5013441;28;20197;-53
2022/05/07 04:51:58;;;;;;;5.90;5.40;;;15.40;99.90;;;;;;5013225;28;20181;-52
2022/05/07 04:54:24;;;;;;;6.10;5.50;;;15.40;99.90;;;;;;5013044;28;20179;-52
2022/05/07 04:56:51;;;;;;;5.80;5.30;;;15.40;99.90;;;;;;5013188;28;20740;-54
2022/05/07 04:59:18;;;;;;;6.20;5.70;;;15.40;99.90;;;;;;5012665;28;20279;-54
2022/05/07 05:01:44;;;;;;;6.37;5.67;;;15.40;99.90;;;;;;5013109;28;20200;-53
2022/05/07 05:04:10;;;;;;;5.90;5.40;;;15.40;99.90;;;;;;5012764;28;20232;-56
2022/05/07 05:06:36;;;;;;;5.50;5.00;;;15.50;99.90;;;;;;5012963;28;20262;-51
2022/05/07 05:09:02;;;;;;;5.80;5.30;;;15.50;99.90;;;;;;5013010;28;20669;-53
2022/05/07 05:11:28;;;;;;;6.27;5.77;;;15.50;99.90;;;;;;5013074;28;20181;-55
2022/05/07 05:13:53;;;;;;;5.10;4.70;;;15.50;99.90;;;;;;5012677;28;20176;-55
2022/05/07 05:16:19;;;;;;;6.63;5.70;;;15.50;99.90;;;;;;5012577;28;20198;-57
2022/05/07 05:18:44;;;;;;;5.63;5.17;;;15.60;99.90;;;;;;5013104;28;20178;-51
2022/05/07 05:21:10;;;;;;;5.70;5.23;;;15.50;99.90;;;;;;5012696;28;20203;-54
2022/05/07 05:23:35;;;;;;;5.43;4.93;;;15.50;99.90;;;;;;5012616;28;20620;-55
2022/05/07 05:26:01;;;;;;;5.77;5.13;;;15.60;99.90;;;;;;5012518;28;20203;-53
2022/05/07 05:28:27;;;;;;;5.90;5.40;;;15.60;99.90;;;;;;5012709;28;20636;-52
2022/05/07 05:30:53;;;;;;;5.47;4.97;;;15.60;99.90;;;;;;5012748;28;20227;-53
2022/05/07 05:33:19;;;;;;;5.90;5.40;;;15.60;99.90;;;;;;5012648;28;20176;-56
2022/05/07 05:35:45;;;;;;;5.40;4.90;;;15.60;99.90;;;;;;5012215;28;20794;-51
2022/05/07 05:38:10;;;;;;;5.20;4.80;;;15.60;99.90;;;;;;5012508;28;20268;-56
2022/05/07 05:40:36;;;;;;;5.53;5.03;;;15.70;99.90;;;;;;5012496;28;20192;-51
2022/05/07 05:43:02;;;;;;;5.27;4.80;;;15.70;99.90;;;;;;5012513;28;20223;-56
2022/05/07 05:45:27;;;;;;;4.90;4.50;;;15.70;99.90;;;;;;5011916;28;20188;-52
2022/05/07 05:47:54;;;;;;;5.30;4.80;;;15.70;99.90;;;;;;5012423;28;20165;-57
2022/05/07 05:50:20;;;;;;;5.23;4.70;;;15.80;99.90;;;;;;5012228;28;20180;-54
2022/05/07 05:52:46;;;;;;;5.73;5.13;;;15.90;99.90;;;;;;5012281;28;20185;-58
2022/05/07 05:55:12;;;;;;;5.10;4.60;;;15.90;99.90;;;;;;5011951;28;20543;-58
2022/05/07 05:57:37;;;;;;;4.40;4.10;;;15.90;99.90;;;;;;5012151;28;20212;-54
2022/05/07 06:00:07;;;;;;;4.83;4.30;;;16.00;99.90;;;;;;5012118;28;20207;-52
2022/05/07 06:02:33;;;;;;;4.30;4.00;;;16.00;99.90;;;;;;5012215;28;20223;-54
2022/05/07 06:04:58;;;;;;;4.50;4.10;;;16.00;99.90;;;;;;5011789;28;20196;-56
2022/05/07 06:07:24;;;;;;;4.63;4.23;;;16.10;99.90;;;;;;5012123;28;20173;-55
2022/05/07 06:09:49;;;;;;;4.80;4.40;;;16.10;99.90;;;;;;5011131;28;20184;-55
2022/05/07 06:12:15;;;;;;;4.80;4.40;;;16.20;99.90;;;;;;5011979;28;20223;-54
2022/05/07 06:14:40;;;;;;;4.67;4.27;;;16.20;99.90;;;;;;5011594;28;20177;-55
2022/05/07 06:17:06;;;;;;;4.73;4.33;;;16.30;99.90;;;;;;5011871;28;20176;-57
2022/05/07 06:19:31;;;;;;;4.17;3.80;;;16.30;99.90;;;;;;5011883;28;20260;-56
2022/05/07 06:21:57;;;;;;;4.27;3.87;;;16.40;99.90;;;;;;5011968;28;20577;-53
2022/05/07 06:29:50;;;;;;;4.67;4.27;;;18.00;99.90;;;;;;5012282;28;20182;-53
2022/05/07 06:32:17;;;;;;;4.30;4.00;;;16.70;99.90;;;;;;5011997;28;20689;-56
2022/05/07 06:34:43;;;;;;;4.33;3.93;;;16.70;99.90;;;;;;5011455;28;20168;-55
2022/05/07 06:37:09;;;;;;;3.93;3.63;;;16.80;99.90;;;;;;5011830;28;20538;-54
2022/05/07 06:39:34;;;;;;;4.20;3.80;;;16.90;99.90;;;;;;5011626;28;20223;-55
2022/05/07 06:42:00;;;;;;;4.13;3.83;;;17.00;99.90;;;;;;5011770;28;20273;-53
2022/05/07 06:44:26;;;;;;;3.93;3.63;;;17.10;99.90;;;;;;5011570;28;20181;-56
2022/05/07 06:46:51;;;;;;;4.07;3.77;;;17.20;99.90;;;;;;5011791;28;20561;-55
2022/05/07 06:49:18;;;;;;;3.67;3.47;;;17.30;99.90;;;;;;5011870;28;20219;-55
2022/05/07 06:51:44;;;;;;;4.10;3.80;;;17.40;99.90;;;;;;5011757;28;20172;-52
2022/05/07 06:54:09;;;;;;;3.60;3.30;;;17.40;99.90;;;;;;5011628;28;20188;-53
2022/05/07 06:56:35;;;;;;;4.07;3.77;;;17.40;99.90;;;;;;5011793;28;20185;-55
2022/05/07 06:59:01;;;;;;;3.70;3.40;;;17.50;99.90;;;;;;5011701;28;20258;-53
2022/05/07 07:01:27;;;;;;;4.00;3.70;;;17.50;99.90;;;;;;5011664;28;20283;-53
2022/05/07 07:03:53;;;;;;;3.53;3.23;;;17.50;99.90;;;;;;5011302;28;20252;-57
2022/05/07 07:06:18;;;;;;;3.90;3.60;;;17.50;99.90;;;;;;4977820;28;20196;-57
2022/05/07 07:08:44;;;;;;;3.77;3.47;;;17.50;99.90;;;;;;5011632;28;20230;-55
2022/05/07 07:11:09;;;;;;;3.60;3.30;;;17.50;99.90;;;;;;5011602;28;20188;-55
2022/05/07 07:13:35;;;;;;;3.50;3.20;;;17.50;99.90;;;;;;5011335;28;20165;-57
2022/05/07 07:16:01;;;;;;;4.00;3.70;;;17.50;99.90;;;;;;5011334;28;20620;-53
2022/05/07 07:18:26;;;;;;;3.73;3.43;;;17.60;99.90;;;;;;5011575;28;20186;-54
2022/05/07 07:20:52;;;;;;;3.70;3.43;;;17.60;99.90;;;;;;5011317;28;20205;-55
2022/05/07 07:23:17;;;;;;;3.30;3.00;;;17.60;99.90;;;;;;5014782;28;20200;-54
2022/05/07 07:25:44;;;;;;;3.43;3.23;;;17.60;99.90;;;;;;5014412;28;20208;-53
2022/05/07 07:28:11;;;;;;;3.40;3.10;;;17.60;99.90;;;;;;5014869;28;20170;-55
2022/05/07 07:30:38;;;;;;;3.97;3.67;;;17.70;99.90;;;;;;5014661;28;20180;-55
2022/05/07 07:33:04;;;;;;;4.27;3.50;;;17.70;99.90;;;;;;5014769;28;20799;-55
2022/05/07 07:35:31;;;;;;;3.97;3.60;;;17.80;99.90;;;;;;5014155;28;20209;-57
2022/05/07 07:37:56;;;;;;;3.90;3.60;;;17.80;99.90;;;;;;5014583;28;20665;-57
2022/05/07 07:40:22;;;;;;;3.90;3.60;;;17.80;99.90;;;;;;5011291;28;20241;-56
2022/05/07 07:42:48;;;;;;;3.80;3.50;;;17.90;99.90;;;;;;5014008;28;20175;-52
2022/05/07 07:48:05;;;;;;;3.93;3.63;;;17.90;99.90;;;;;;5016437;28;20239;-53
2022/05/07 07:50:34;;;;;;;3.60;3.30;;;17.90;99.90;;;;;;5014125;28;20178;-55
2022/05/07 07:53:01;;;;;;;3.77;3.47;;;17.90;99.90;;;;;;5014099;28;20175;-56
2022/05/07 07:55:28;;;;;;;4.20;3.87;;;17.90;99.90;;;;;;5013225;28;20197;-55
2022/05/07 07:57:55;;;;;;;3.70;3.40;;;17.90;99.90;;;;;;5012725;28;20181;-51
2022/05/07 08:00:21;;;;;;;4.20;3.90;;;17.90;99.90;;;;;;4994300;28;20223;-54
2022/05/07 08:02:52;;;;;;;4.40;4.00;;;17.90;99.90;;;;;;5013838;28;20641;-56
2022/05/07 08:05:32;;;;;;;4.30;4.00;;;17.80;99.90;;;;;;4996139;28;20184;-58
2022/05/07 08:13:27;;;;;;;4.03;3.60;;;17.80;99.90;;;;;;5012449;28;22175;-55
2022/05/07 08:15:53;;;;;;;3.97;3.67;;;17.80;99.90;;;;;;5005860;28;20661;-49
2022/05/07 08:18:19;;;;;;;3.67;3.37;;;17.80;99.90;;;;;;5014147;28;20175;-54
2022/05/07 08:20:45;;;;;;;4.10;3.80;;;17.80;99.90;;;;;;5013712;28;20209;-57
2022/05/07 08:23:11;;;;;;;4.47;4.10;;;17.70;99.90;;;;;;5011223;28;20664;-53
2022/05/07 08:25:38;;;;;;;4.33;3.93;;;17.70;99.90;;;;;;5012428;28;20276;-53
2022/05/07 08:28:04;;;;;;;4.00;3.70;;;17.60;99.90;;;;;;5013300;28;20666;-58
2022/05/07 08:30:30;;;;;;;4.90;4.07;;;17.60;99.90;;;;;;5002009;28;20181;-55
2022/05/07 08:32:56;;;;;;;4.23;3.93;;;17.50;99.90;;;;;;5012329;28;20251;-55
2022/05/07 08:35:22;;;;;;;4.20;3.80;;;17.50;99.90;;;;;;5013038;28;20201;-54
2022/05/07 08:37:48;;;;;;;4.20;3.90;;;17.50;99.90;;;;;;5013387;28;20181;-50
2022/05/07 08:40:16;;;;;;;4.60;4.20;;;17.50;99.90;;;;;;5012866;28;20249;-52
2022/05/07 08:42:42;;;;;;;4.53;4.23;;;17.50;99.90;;;;;;5013168;28;20216;-53
2022/05/07 08:45:09;;;;;;;4.53;4.10;;;17.50;99.90;;;;;;5012626;28;20185;-52
2022/05/07 08:47:34;;;;;;;4.83;4.43;;;17.50;99.90;;;;;;5013028;28;20205;-54
2022/05/07 08:50:00;;;;;;;4.10;3.80;;;17.40;99.90;;;;;;5025694;23;20271;-61
2022/05/07 08:52:28;;;;;;;4.77;4.37;;;17.50;99.90;;;;;;5001188;28;20185;-56
2022/05/07 08:54:53;;;;;;;4.70;4.30;;;17.50;99.90;;;;;;4992983;28;20174;-60
2022/05/07 08:57:19;;;;;;;5.00;4.60;;;17.60;99.90;;;;;;4991780;28;20182;-60
2022/05/07 08:59:51;;;;;;;4.63;4.27;;;17.60;99.90;;;;;;4999930;28;20201;-59
2022/05/07 09:02:17;;;;;;;4.93;4.50;;;17.60;99.90;;;;;;4993048;28;20224;-59
2022/05/07 09:04:57;;;;;;;4.60;4.20;;;17.60;99.90;;;;;;4993142;28;20670;-59
2022/05/07 09:07:23;;;;;;;4.10;3.80;;;17.60;99.90;;;;;;4995220;28;20582;-58
2022/05/07 09:09:49;;;;;;;4.27;3.97;;;17.70;99.90;;;;;;4993131;28;20192;-59
2022/05/07 09:12:28;;;;;;;4.17;3.87;;;17.70;99.90;;;;;;4993170;28;20174;-58
2022/05/07 09:15:04;;;;;;;4.67;3.90;;;17.80;99.90;;;;;;4992842;28;20172;-61
2022/05/07 09:17:30;;;;;;;4.40;4.00;;;17.80;99.90;;;;;;4993043;28;20176;-58
2022/05/07 09:19:56;;;;;;;4.17;3.87;;;17.90;99.90;;;;;;4975598;28;20198;-58
2022/05/07 09:22:22;;;;;;;4.37;4.03;;;17.90;99.90;;;;;;4992634;28;20668;-57
2022/05/07 09:24:55;;;;;;;4.13;3.73;;;17.90;99.90;;;;;;4993882;28;20220;-57
2022/05/07 09:27:24;;;;;;;5.17;4.30;;;17.90;99.90;;;;;;4990928;28;20656;-59
2022/05/07 09:30:03;;;;;;;4.90;4.50;;;17.90;99.90;;;;;;4974857;28;20195;-58
2022/05/07 09:32:36;;;;;;;4.57;4.17;;;17.80;99.90;;;;;;4996863;28;20670;-55
2022/05/07 09:38:01;;;;;;;4.47;4.17;;;17.90;99.90;;;;;;4990228;28;20247;-60
2022/05/07 09:40:30;;;;;;;4.00;3.70;;;18.00;99.90;;;;;;4992178;28;20203;-54
2022/05/07 09:42:57;;;;;;;3.83;3.53;;;18.10;99.90;;;;;;4965250;28;20254;-58
2022/05/07 09:45:30;;;;;;;4.13;3.67;;;18.20;99.90;;;;;;4991611;28;20192;-60
2022/05/07 09:47:57;;;;;;;4.43;4.03;;;18.20;99.90;;;;;;4997946;28;20662;-59
2022/05/07 09:50:24;;;;;;;3.97;3.67;;;18.30;99.90;;;;;;4993667;28;20626;-57
2022/05/07 09:58:20;;;;;;;4.00;3.70;;;18.70;99.90;;;;;;4992979;28;20583;-55
2022/05/07 10:01:15;;;;;;;4.77;4.30;;;18.80;99.90;;;;;;4995373;28;20200;-61
2022/05/07 10:03:59;;;;;;;4.07;3.77;;;18.90;99.90;;;;;;4979774;28;20607;-58
2022/05/07 10:06:39;;;;;;;3.90;3.60;;;18.90;99.90;;;;;;4992676;28;20224;-59
2022/05/07 10:09:27;;;;;;;3.87;3.30;;;18.90;99.90;;;;;;4984912;28;20267;-61
2022/05/07 10:11:55;;;;;;;3.70;3.40;;;18.90;99.90;;;;;;4990416;28;20220;-53
2022/05/07 10:14:29;;;;;;;3.90;3.60;;;18.90;99.90;;;;;;4992332;28;20177;-58
2022/05/07 10:17:09;;;;;;;3.30;3.10;;;18.80;99.90;;;;;;4995169;28;20183;-62
2022/05/07 10:19:42;;;;;;;3.70;3.40;;;18.80;99.90;;;;;;5011682;28;20183;-62
2022/05/07 10:22:22;;;;;;;3.40;3.20;;;18.80;99.90;;;;;;5011727;28;20288;-60
2022/05/07 10:24:49;;;;;;;3.73;3.43;;;18.80;99.90;;;;;;4978908;28;20541;-58
2022/05/07 10:27:38;;;;;;;4.10;3.80;;;18.80;99.90;;;;;;4991471;28;20188;-61
2022/05/07 10:30:15;;;;;;;3.70;3.40;;;18.90;99.90;;;;;;4991946;28;20205;-58
2022/05/07 10:32:58;;;;;;;3.90;3.60;;;18.90;99.90;;;;;;4992199;28;20259;-61
2022/05/07 10:35:40;;;;;;;3.83;3.53;;;19.00;99.90;;;;;;4991336;28;20199;-61
2022/05/07 10:38:11;;;;;;;4.47;4.07;;;19.10;99.90;;;;;;4991959;28;20180;-62
2022/05/07 10:40:37;;;;;;;4.10;3.70;;;19.10;99.90;;;;;;4992534;28;20244;-59
2022/05/07 10:43:03;;;;;;;4.40;4.10;;;19.20;99.90;;;;;;4991853;28;20189;-61
2022/05/07 10:45:41;;;;;;;4.23;3.87;;;19.20;99.90;;;;;;4991763;28;20195;-61
2022/05/07 10:48:17;;;;;;;4.07;3.77;;;19.40;99.90;;;;;;4991951;28;20171;-61
2022/05/07 10:50:50;;;;;;;4.50;4.10;;;19.50;99.90;;;;;;4992367;28;20578;-62
2022/05/07 10:53:16;;;;;;;4.63;4.30;;;19.60;99.90;;;;;;4992052;28;20177;-61
2022/05/07 10:55:41;;;;;;;4.37;4.07;;;19.70;99.90;;;;;;4990683;28;20309;-61
2022/05/07 10:58:07;;;;;;;4.70;4.37;;;19.70;99.90;;;;;;4992343;28;20189;-60
2022/05/07 11:00:34;;;;;;;4.83;4.43;;;19.80;99.90;;;;;;4997310;28;20205;-56
2022/05/07 11:03:00;;;;;;;4.70;4.30;;;19.80;99.90;;;;;;4994462;28;20235;-61
2022/05/07 11:05:31;;;;;;;4.73;4.33;;;19.90;99.90;;;;;;4995148;28;20550;-62
2022/05/07 11:08:02;;;;;;;4.90;4.50;;;19.90;99.90;;;;;;4993132;28;20680;-60
2022/05/07 11:10:28;;;;;;;5.30;4.90;;;20.00;99.90;;;;;;5001368;28;20266;-61
2022/05/07 11:13:08;;;;;;;4.70;4.40;;;20.10;99.90;;;;;;4995373;28;20183;-58
2022/05/07 11:15:34;;;;;;;5.53;5.10;;;20.10;99.90;;;;;;4994510;28;20207;-61
2022/05/07 11:17:59;;;;;;;5.23;4.83;;;20.10;99.90;;;;;;4994868;28;20189;-60
2022/05/07 11:20:32;;;;;;;5.00;4.60;;;20.10;99.90;;;;;;4994503;28;20209;-60
2022/05/07 11:23:00;;;;;;;4.80;4.40;;;20.10;99.90;;;;;;4992655;28;20188;-59
2022/05/07 11:25:25;;;;;;;4.70;4.30;;;20.20;99.90;;;;;;4994878;28;20173;-61
2022/05/07 11:27:51;;;;;;;4.83;4.43;;;20.30;99.90;;;;;;4994425;28;20733;-61
2022/05/07 11:30:17;;;;;;;5.13;4.73;;;20.40;99.90;;;;;;4994233;28;20201;-61
2022/05/07 11:32:44;;;;;;;5.10;4.70;;;20.60;99.90;;;;;;4994473;28;20268;-61
2022/05/07 11:35:10;;;;;;;5.20;4.80;;;20.70;99.90;;;;;;4994230;28;20181;-61
2022/05/07 11:37:46;;;;;;;5.00;4.60;;;20.80;99.90;;;;;;4994252;28;20227;-62
2022/05/07 11:40:13;;;;;;;5.32;4.90;;;20.70;99.90;;;;;;4992191;28;20213;-60
2022/05/07 11:42:43;;;;;;;4.67;4.30;;;20.70;99.90;;;;;;4994562;28;20180;-61
2022/05/07 11:45:25;;;;;;;5.27;4.77;;;20.70;99.90;;;;;;4993999;28;20252;-59
2022/05/07 11:48:04;;;;;;;4.30;4.00;;;20.80;99.90;;;;;;4994427;28;20177;-59
2022/05/07 11:50:42;;;;;;;5.40;4.73;;;20.70;99.90;;;;;;4993191;28;20581;-59
2022/05/07 11:53:15;;;;;;;4.70;4.30;;;20.60;99.90;;;;;;4974985;28;20181;-60
2022/05/07 11:55:42;;;;;;;4.53;4.23;;;20.60;99.90;;;;;;4974896;28;20261;-62
2022/05/07 11:58:21;;;;;;;4.43;4.10;;;20.60;99.90;;;;;;4978136;28;20578;-62
2022/05/07 12:00:49;;;;;;;4.40;4.00;;;20.70;99.90;;;;;;4994081;28;20814;-61
2022/05/07 12:03:19;;;;;;;4.87;4.47;;;20.80;99.90;;;;;;4994185;28;20190;-61
2022/05/07 12:05:47;;;;;;;4.33;4.00;;;20.80;99.90;;;;;;4994019;28;20182;-62
2022/05/07 12:08:19;;;;;;;4.80;4.40;;;20.80;99.90;;;;;;4993496;28;20201;-59
2022/05/07 12:10:46;;;;;;;4.77;4.30;;;21.00;99.90;;;;;;4991518;28;20270;-60
2022/05/07 12:13:13;;;;;;;4.00;3.70;;;21.00;99.90;;;;;;4993920;28;20178;-62
2022/05/07 12:18:24;;;;;;;4.80;4.40;;;20.90;99.90;;;;;;4991527;28;20260;-61
2022/05/07 12:20:50;;;;;;;4.90;4.40;;;20.80;99.90;;;;;;4993836;28;20208;-60
2022/05/07 12:31:29;;;;;;;4.63;4.23;;;20.50;99.90;;;;;;4993972;28;20216;-60
2022/05/07 12:33:54;;;;;;;4.90;4.50;;;20.40;99.90;;;;;;4993601;28;20177;-58
2022/05/07 12:36:20;;;;;;;4.50;4.20;;;20.30;99.90;;;;;;4993841;28;20181;-62
2022/05/07 12:38:45;;;;;;;5.20;4.70;;;20.30;99.90;;;;;;4993674;28;20303;-58
2022/05/07 12:41:12;;;;;;;5.07;4.67;;;20.20;99.90;;;;;;4993058;28;20216;-61
2022/05/07 12:43:38;;;;;;;4.90;4.40;;;20.00;99.90;;;;;;4993241;28;20728;-60
2022/05/07 12:46:04;;;;;;;5.70;5.10;;;19.90;99.90;;;;;;4993388;28;20248;-62
2022/05/07 12:48:29;;;;;;;5.00;4.50;;;20.00;99.90;;;;;;4993514;28;20193;-60
2022/05/07 12:50:55;;;;;;;4.50;4.20;;;20.00;99.90;;;;;;4993260;28;20586;-61
2022/05/07 12:53:20;;;;;;;5.00;4.50;;;20.20;99.90;;;;;;4975894;28;20177;-61
2022/05/07 12:55:46;;;;;;;4.27;3.97;;;20.20;99.90;;;;;;4993382;28;20255;-60
2022/05/07 12:58:12;;;;;;;4.57;4.17;;;20.30;99.90;;;;;;4992461;28;20527;-59
2022/05/07 13:00:39;;;;;;;3.77;3.47;;;20.30;99.90;;;;;;5008066;28;20204;-61
2022/05/07 13:03:05;;;;;;;3.67;3.37;;;20.20;99.90;;;;;;5012179;28;20546;-61
2022/05/07 13:05:33;;;;;;;3.33;3.10;;;20.10;99.90;;;;;;5012662;28;20673;-61
2022/05/07 13:08:00;;;;;;;5.50;3.20;;;20.10;99.90;;;;;;5006732;28;20183;-60
2022/05/07 13:10:26;;;;;;;6.20;3.20;;;20.00;99.90;;;;;;4991993;28;20194;-60
2022/05/07 13:12:52;;;;;;;2.77;2.57;;;20.20;99.90;;;;;;4992772;28;20200;-61
2022/05/07 13:15:17;;;;;;;3.43;2.90;;;20.20;99.90;;;;;;4991154;28;20259;-59
2022/05/07 13:17:44;;;;;;;3.00;2.80;;;20.30;99.90;;;;;;4992932;28;20208;-58
2022/05/07 13:20:10;;;;;;;2.40;2.30;;;20.40;99.90;;;;;;4992040;28;20197;-61
2022/05/07 13:22:35;;;;;;;2.80;2.60;;;20.60;99.90;;;;;;4992564;28;20177;-61
2022/05/07 13:25:01;;;;;;;2.90;2.70;;;20.70;99.90;;;;;;4994289;28;20612;-59